Time;durP1;ratioP1;P1;durP2;ratioP2;P2;SDS_P1;SDS_P2;PMS_P1;PMS_P2;Temp;Humidity;BMP_temperature;BMP_pressure;BME280_temperature;BME280_humidity;BME280_pressure;Samples;Min_cycle;Max_cycle;Signal;HPM_P1;HPM_P2
2023/06/05 00:02:12;;;;;;;8.70;6.67;;;;;;;;;;5076913;28;20455;-82
2023/06/05 00:04:39;;;;;;;8.13;5.60;;;;;;;;;;5075162;28;20447;-82
2023/06/05 00:07:05;;;;;;;8.47;5.80;;;;;;;;;;5073895;28;20528;-82
2023/06/05 00:09:32;;;;;;;7.13;5.50;;;;;;;;;;5077276;28;20504;-82
2023/06/05 00:12:00;;;;;;;12.17;6.30;;;;;;;;;;5069703;28;20856;-82
2023/06/05 00:14:26;;;;;;;9.07;6.10;;;;;;;;;;5081032;28;20474;-82
2023/06/05 00:16:53;;;;;;;15.93;7.33;;;;;;;;;;5076962;28;20829;-82
2023/06/05 00:19:19;;;;;;;8.97;5.97;;;;;;;;;;5076013;28;20482;-83
2023/06/05 00:21:46;;;;;;;9.33;6.10;;;;;;;;;;5079763;28;20471;-82
2023/06/05 00:24:12;;;;;;;6.97;5.63;;;;;;;;;;5086227;28;20441;-82
2023/06/05 00:26:38;;;;;;;11.93;7.07;;;;;;;;;;5083151;28;20862;-82
2023/06/05 00:29:06;;;;;;;9.80;6.07;;;;;;;;;;5083557;28;20450;-82
2023/06/05 00:31:33;;;;;;;9.03;6.23;;;;;;;;;;5083388;28;20474;-82
2023/06/05 00:33:59;;;;;;;12.93;7.03;;;;;;;;;;5079571;28;20537;-82
2023/06/05 00:36:27;;;;;;;11.20;6.50;;;;;;;;;;5085217;28;20474;-82
2023/06/05 00:38:54;;;;;;;9.50;7.27;;;;;;;;;;5078981;28;20556;-82
2023/06/05 00:41:20;;;;;;;9.80;5.23;;;;;;;;;;5082184;28;20856;-82
2023/06/05 00:43:47;;;;;;;8.47;6.60;;;;;;;;;;5073347;28;20974;-81
2023/06/05 00:46:16;;;;;;;8.43;6.20;;;;;;;;;;5072273;28;21000;-82
2023/06/05 00:48:43;;;;;;;11.50;6.40;;;;;;;;;;5080060;28;20466;-83
2023/06/05 00:51:14;;;;;;;8.00;6.27;;;;;;;;;;5076723;28;21038;-82
2023/06/05 00:53:40;;;;;;;11.20;6.70;;;;;;;;;;5070700;28;20545;-82
2023/06/05 00:56:07;;;;;;;8.07;6.53;;;;;;;;;;5067791;28;20479;-82
2023/06/05 00:58:33;;;;;;;11.37;6.83;;;;;;;;;;5071277;28;20607;-80
2023/06/05 01:01:03;;;;;;;8.77;6.67;;;;;;;;;;5066984;28;21036;-82
2023/06/05 01:03:33;;;;;;;12.13;7.30;;;;;;;;;;5074148;28;20999;-83
2023/06/05 01:06:03;;;;;;;8.40;5.87;;;;;;;;;;5074907;28;20470;-82
2023/06/05 01:08:29;;;;;;;12.47;6.80;;;;;;;;;;5074532;28;20504;-82
2023/06/05 01:11:00;;;;;;;11.40;6.80;;;;;;;;;;5075901;28;20470;-83
2023/06/05 01:13:28;;;;;;;8.40;6.40;;;;;;;;;;5084449;28;20450;-83
2023/06/05 01:15:56;;;;;;;10.50;7.17;;;;;;;;;;5077797;28;20471;-80
2023/06/05 01:18:23;;;;;;;10.17;5.53;;;;;;;;;;5085216;28;20490;-81
2023/06/05 01:20:51;;;;;;;11.43;6.50;;;;;;;;;;5082904;28;20533;-81
2023/06/05 01:23:25;;;;;;;8.70;6.00;;;;;;;;;;5087456;28;20454;-81
2023/06/05 01:25:53;;;;;;;9.73;6.40;;;;;;;;;;5078782;28;20929;-81
2023/06/05 01:28:23;;;;;;;10.23;6.53;;;;;;;;;;5076948;28;20465;-80
2023/06/05 01:30:54;;;;;;;11.67;7.63;;;;;;;;;;5081874;28;20466;-81
2023/06/05 01:33:27;;;;;;;9.97;7.10;;;;;;;;;;5083079;28;20458;-81
2023/06/05 01:35:55;;;;;;;8.20;5.60;;;;;;;;;;5083460;28;20470;-80
2023/06/05 01:38:24;;;;;;;7.50;6.10;;;;;;;;;;5084374;28;21002;-81
2023/06/05 01:40:51;;;;;;;8.50;5.80;;;;;;;;;;5083010;28;20466;-81
2023/06/05 01:43:18;;;;;;;8.20;6.07;;;;;;;;;;5073299;28;20447;-81
2023/06/05 01:45:45;;;;;;;10.20;5.93;;;;;;;;;;5069252;28;20474;-81
2023/06/05 01:48:11;;;;;;;9.30;6.40;;;;;;;;;;5077284;28;20497;-81
2023/06/05 01:50:38;;;;;;;7.53;6.17;;;;;;;;;;5082104;28;20471;-81
2023/06/05 01:53:05;;;;;;;9.03;5.70;;;;;;;;;;5078197;28;20467;-81
2023/06/05 01:55:33;;;;;;;13.10;6.20;;;;;;;;;;5084160;28;20991;-80
2023/06/05 01:58:00;;;;;;;9.50;6.20;;;;;;;;;;5072065;28;20489;-81
2023/06/05 02:00:27;;;;;;;11.23;5.07;;;;;;;;;;5079150;28;20474;-81
2023/06/05 02:02:53;;;;;;;9.93;5.37;;;;;;;;;;5078101;28;20458;-81
2023/06/05 02:05:21;;;;;;;8.37;6.10;;;;;;;;;;5078094;28;20541;-81
2023/06/05 02:07:48;;;;;;;7.27;5.83;;;;;;;;;;5081434;28;20478;-81
2023/06/05 02:10:18;;;;;;;9.17;5.10;;;;;;;;;;5087334;28;20465;-81
2023/06/05 02:12:46;;;;;;;8.77;6.20;;;;;;;;;;5080906;28;20995;-81
2023/06/05 02:15:13;;;;;;;7.43;5.67;;;;;;;;;;5084532;28;20466;-81
2023/06/05 02:17:44;;;;;;;10.40;5.70;;;;;;;;;;5083860;28;20486;-80
2023/06/05 02:20:11;;;;;;;6.20;5.47;;;;;;;;;;5085950;28;20489;-81
2023/06/05 02:22:39;;;;;;;12.33;5.93;;;;;;;;;;5080023;28;20932;-81
2023/06/05 02:25:06;;;;;;;7.40;5.80;;;;;;;;;;5087722;28;20462;-81
2023/06/05 02:27:32;;;;;;;6.67;4.80;;;;;;;;;;5084689;28;20477;-80
2023/06/05 02:30:00;;;;;;;11.70;5.90;;;;;;;;;;5077410;28;20466;-80
2023/06/05 02:32:28;;;;;;;6.60;5.73;;;;;;;;;;5090243;28;20443;-81
2023/06/05 02:34:56;;;;;;;11.37;6.93;;;;;;;;;;5081747;28;20471;-80
2023/06/05 02:37:24;;;;;;;9.13;5.97;;;;;;;;;;5085456;28;20486;-81
2023/06/05 02:39:50;;;;;;;10.80;5.70;;;;;;;;;;5083914;28;20536;-81
2023/06/05 02:42:18;;;;;;;10.10;6.87;;;;;;;;;;5080296;28;20454;-81
2023/06/05 02:44:45;;;;;;;9.53;6.17;;;;;;;;;;5088194;28;20446;-81
2023/06/05 02:47:12;;;;;;;11.50;5.73;;;;;;;;;;5078880;28;20478;-81
2023/06/05 02:49:39;;;;;;;7.23;5.00;;;;;;;;;;5081746;28;20458;-81
2023/06/05 02:52:05;;;;;;;7.27;6.00;;;;;;;;;;5081451;28;20461;-81
2023/06/05 02:54:32;;;;;;;8.40;5.80;;;;;;;;;;5079055;28;20443;-81
2023/06/05 02:57:00;;;;;;;8.73;5.97;;;;;;;;;;5078907;28;20577;-81
2023/06/05 02:59:27;;;;;;;12.70;6.20;;;;;;;;;;5074643;28;20454;-82
2023/06/05 03:01:54;;;;;;;10.07;5.60;;;;;;;;;;5077802;28;20509;-81
2023/06/05 03:04:23;;;;;;;11.80;6.73;;;;;;;;;;5075708;28;20541;-81
2023/06/05 03:06:50;;;;;;;10.77;6.37;;;;;;;;;;5083617;28;20848;-80
2023/06/05 03:09:16;;;;;;;11.30;6.37;;;;;;;;;;5069817;28;20653;-80
2023/06/05 03:11:44;;;;;;;9.67;6.43;;;;;;;;;;5081160;28;20463;-81
2023/06/05 03:14:10;;;;;;;9.63;6.50;;;;;;;;;;5079438;28;20537;-81
2023/06/05 03:16:41;;;;;;;11.33;5.83;;;;;;;;;;5080809;28;20529;-82
2023/06/05 03:19:08;;;;;;;9.50;6.00;;;;;;;;;;5075276;28;20562;-82
2023/06/05 03:21:35;;;;;;;10.33;6.43;;;;;;;;;;5077760;28;20474;-82
2023/06/05 03:24:02;;;;;;;8.80;6.47;;;;;;;;;;5076581;28;20458;-82
2023/06/05 03:26:28;;;;;;;8.83;5.90;;;;;;;;;;5074586;28;20471;-82
2023/06/05 03:28:55;;;;;;;8.50;6.77;;;;;;;;;;5074619;28;20893;-82
2023/06/05 03:31:21;;;;;;;11.17;6.13;;;;;;;;;;5075264;28;20466;-82
2023/06/05 03:33:49;;;;;;;10.03;6.13;;;;;;;;;;5085850;28;20442;-82
2023/06/05 03:36:17;;;;;;;10.07;7.77;;;;;;;;;;5075390;28;20508;-82
2023/06/05 03:38:45;;;;;;;10.13;6.00;;;;;;;;;;5083571;28;20515;-81
2023/06/05 03:41:11;;;;;;;14.50;7.40;;;;;;;;;;5077573;28;20462;-82
2023/06/05 03:43:38;;;;;;;12.53;7.70;;;;;;;;;;5082951;28;20453;-82
2023/06/05 03:46:05;;;;;;;9.73;7.37;;;;;;;;;;5080893;28;20531;-82
2023/06/05 03:48:31;;;;;;;11.57;7.47;;;;;;;;;;5078562;28;20546;-82
2023/06/05 03:51:00;;;;;;;11.27;6.10;;;;;;;;;;5077778;28;20532;-82
2023/06/05 03:53:29;;;;;;;10.87;7.63;;;;;;;;;;5080760;28;20483;-82
2023/06/05 03:55:59;;;;;;;12.83;6.60;;;;;;;;;;5071097;28;20560;-80
2023/06/05 03:58:26;;;;;;;14.00;7.20;;;;;;;;;;5083066;28;20838;-82
2023/06/05 04:00:53;;;;;;;10.87;6.40;;;;;;;;;;5067180;28;20529;-82
2023/06/05 04:03:20;;;;;;;9.17;6.70;;;;;;;;;;5078504;28;20446;-82
2023/06/05 04:05:47;;;;;;;12.60;7.43;;;;;;;;;;5087124;28;20494;-82
2023/06/05 04:08:13;;;;;;;11.00;8.23;;;;;;;;;;5073049;28;20572;-82
2023/06/05 04:10:41;;;;;;;12.83;6.93;;;;;;;;;;5082845;28;20563;-81
2023/06/05 04:13:09;;;;;;;11.13;7.20;;;;;;;;;;5079520;28;20545;-82
2023/06/05 04:15:36;;;;;;;12.87;7.30;;;;;;;;;;5076245;28;20482;-80
2023/06/05 04:18:03;;;;;;;13.97;7.63;;;;;;;;;;5079930;28;20522;-82
2023/06/05 04:20:29;;;;;;;15.00;7.37;;;;;;;;;;5075940;28;20467;-80
2023/06/05 04:22:56;;;;;;;12.07;7.80;;;;;;;;;;5079251;28;20451;-81
2023/06/05 04:25:22;;;;;;;12.93;7.90;;;;;;;;;;5075066;28;20470;-81
2023/06/05 04:27:51;;;;;;;13.20;8.33;;;;;;;;;;5078682;28;20478;-80
2023/06/05 04:30:19;;;;;;;16.00;8.70;;;;;;;;;;5078573;28;20483;-80
2023/06/05 04:32:54;;;;;;;14.17;8.50;;;;;;;;;;5082670;28;20454;-80
2023/06/05 04:35:20;;;;;;;17.93;9.20;;;;;;;;;;5079056;28;20904;-80
2023/06/05 04:37:47;;;;;;;11.47;8.07;;;;;;;;;;5079157;28;20535;-81
2023/06/05 04:40:13;;;;;;;20.17;9.00;;;;;;;;;;5071363;28;20527;-80
2023/06/05 04:42:40;;;;;;;12.27;8.23;;;;;;;;;;5084462;28;20458;-80
2023/06/05 04:45:07;;;;;;;15.30;8.57;;;;;;;;;;5078084;28;20983;-81
2023/06/05 04:47:35;;;;;;;14.07;8.60;;;;;;;;;;5078493;28;20478;-82
2023/06/05 04:50:04;;;;;;;14.87;9.27;;;;;;;;;;5076678;28;20455;-82
2023/06/05 04:52:31;;;;;;;12.93;8.00;;;;;;;;;;5075676;28;20458;-81
2023/06/05 04:54:57;;;;;;;13.10;8.60;;;;;;;;;;5076773;28;20462;-82
2023/06/05 04:57:24;;;;;;;14.30;9.47;;;;;;;;;;5078590;28;20482;-81
2023/06/05 04:59:50;;;;;;;12.00;8.60;;;;;;;;;;5075717;28;20550;-81
2023/06/05 05:02:17;;;;;;;13.70;8.60;;;;;;;;;;5078709;28;20829;-81
2023/06/05 05:04:45;;;;;;;16.27;9.83;;;;;;;;;;5076731;28;20438;-80
2023/06/05 05:07:15;;;;;;;25.03;9.33;;;;;;;;;;5062207;28;20489;-80
2023/06/05 05:09:42;;;;;;;18.83;9.37;;;;;;;;;;5073412;28;20499;-80
2023/06/05 05:12:09;;;;;;;12.00;8.33;;;;;;;;;;5073038;28;20504;-80
2023/06/05 05:14:36;;;;;;;13.63;8.87;;;;;;;;;;5079205;28;20978;-81
2023/06/05 05:17:02;;;;;;;15.40;8.93;;;;;;;;;;5080258;28;20479;-81
2023/06/05 05:19:28;;;;;;;18.10;9.77;;;;;;;;;;5074526;28;20518;-80
2023/06/05 05:21:56;;;;;;;12.37;8.10;;;;;;;;;;5075816;28;20440;-79
2023/06/05 05:24:23;;;;;;;12.77;7.67;;;;;;;;;;5077185;28;20450;-79
2023/06/05 05:26:51;;;;;;;18.43;8.57;;;;;;;;;;5076118;28;21185;-81
2023/06/05 05:29:17;;;;;;;12.63;7.57;;;;;;;;;;5076095;28;20964;-80
2023/06/05 05:31:43;;;;;;;13.43;8.80;;;;;;;;;;5068869;28;20469;-80
2023/06/05 05:34:10;;;;;;;17.70;8.87;;;;;;;;;;5061486;28;20463;-80
2023/06/05 05:36:37;;;;;;;13.60;8.73;;;;;;;;;;5053857;28;20476;-80
2023/06/05 05:39:07;;;;;;;11.40;8.83;;;;;;;;;;5061895;28;20483;-80
2023/06/05 05:41:33;;;;;;;12.17;9.07;;;;;;;;;;5064668;28;20474;-82
2023/06/05 05:44:00;;;;;;;13.93;9.00;;;;;;;;;;5024369;28;20472;-82
2023/06/05 05:46:26;;;;;;;15.03;7.70;;;;;;;;;;5052188;28;20511;-81
2023/06/05 05:48:54;;;;;;;17.97;8.40;;;;;;;;;;5058662;28;20470;-82
2023/06/05 05:51:21;;;;;;;10.57;7.30;;;;;;;;;;5059371;28;20472;-81
2023/06/05 05:53:47;;;;;;;11.13;7.93;;;;;;;;;;5060438;28;20455;-81
2023/06/05 05:56:15;;;;;;;13.07;9.10;;;;;;;;;;5060782;28;20825;-81
2023/06/05 05:58:42;;;;;;;15.90;8.23;;;;;;;;;;5066683;28;20483;-82
2023/06/05 06:01:09;;;;;;;13.23;7.30;;;;;;;;;;5065471;28;20476;-81
2023/06/05 06:03:37;;;;;;;10.87;7.90;;;;;;;;;;5061566;28;20444;-80
2023/06/05 06:06:03;;;;;;;13.87;7.87;;;;;;;;;;5064929;28;20474;-81
2023/06/05 06:08:30;;;;;;;14.43;7.13;;;;;;;;;;5058715;28;21071;-81
2023/06/05 06:10:56;;;;;;;11.77;7.00;;;;;;;;;;5059259;28;20478;-79
2023/06/05 06:13:24;;;;;;;9.97;6.47;;;;;;;;;;5068732;28;20442;-80
2023/06/05 06:15:50;;;;;;;10.63;6.57;;;;;;;;;;5065683;28;20478;-81
2023/06/05 06:18:16;;;;;;;10.13;6.13;;;;;;;;;;5062766;28;20483;-82
2023/06/05 06:20:44;;;;;;;9.60;5.87;;;;;;;;;;5059196;28;20449;-81
2023/06/05 06:23:10;;;;;;;10.00;6.30;;;;;;;;;;5058977;28;20447;-81
2023/06/05 06:25:38;;;;;;;8.00;5.53;;;;;;;;;;5064185;28;20510;-82
2023/06/05 06:28:05;;;;;;;10.90;6.83;;;;;;;;;;5058165;28;20479;-81
2023/06/05 06:30:32;;;;;;;11.87;6.00;;;;;;;;;;5055554;28;21034;-81
2023/06/05 06:32:59;;;;;;;7.20;5.53;;;;;;;;;;5068860;28;20456;-81
2023/06/05 06:35:26;;;;;;;11.00;6.47;;;;;;;;;;5067049;28;20478;-81
2023/06/05 06:37:54;;;;;;;10.30;5.97;;;;;;;;;;5063028;28;20474;-82
2023/06/05 06:40:20;;;;;;;9.10;6.60;;;;;;;;;;5064058;28;20494;-81
2023/06/05 06:42:47;;;;;;;9.13;6.47;;;;;;;;;;5064903;28;20451;-82
2023/06/05 06:45:13;;;;;;;12.63;6.23;;;;;;;;;;5060746;28;20479;-81
2023/06/05 06:47:42;;;;;;;9.13;5.60;;;;;;;;;;5059501;28;20998;-81
2023/06/05 06:50:08;;;;;;;7.13;5.20;;;;;;;;;;5060200;28;20464;-82
2023/06/05 06:52:35;;;;;;;13.30;6.10;;;;;;;;;;5062631;28;20862;-82
2023/06/05 06:55:02;;;;;;;9.53;5.40;;;;;;;;;;5072020;28;20417;-82
2023/06/05 06:57:28;;;;;;;9.00;6.40;;;;;;;;;;5070393;28;20442;-82
2023/06/05 06:59:54;;;;;;;10.23;6.37;;;;;;;;;;5076279;28;20461;-81
2023/06/05 07:02:21;;;;;;;10.07;5.83;;;;;;;;;;5058735;28;20466;-81
2023/06/05 07:04:49;;;;;;;7.57;6.73;;;;;;;;;;5059043;28;20459;-79
2023/06/05 07:07:17;;;;;;;8.47;6.10;;;;;;;;;;5060112;28;20999;-79
2023/06/05 07:09:45;;;;;;;8.07;5.53;;;;;;;;;;5049870;28;21003;-79
2023/06/05 07:12:11;;;;;;;9.40;6.00;;;;;;;;;;5067790;28;20446;-80
2023/06/05 07:14:39;;;;;;;14.73;6.90;;;;;;;;;;5063411;28;20929;-81
2023/06/05 07:17:05;;;;;;;9.03;6.40;;;;;;;;;;5065428;28;20461;-81
2023/06/05 07:19:32;;;;;;;8.73;5.60;;;;;;;;;;5064308;28;20490;-80
2023/06/05 07:22:04;;;;;;;10.53;6.20;;;;;;;;;;5067862;28;20474;-79
2023/06/05 07:24:30;;;;;;;8.90;5.47;;;;;;;;;;5058801;28;20456;-81
2023/06/05 07:26:58;;;;;;;9.70;6.00;;;;;;;;;;5066243;28;20967;-80
2023/06/05 07:29:27;;;;;;;8.90;5.37;;;;;;;;;;5066875;28;20464;-79
2023/06/05 07:31:54;;;;;;;10.93;6.67;;;;;;;;;;5064208;28;20974;-80
2023/06/05 07:34:20;;;;;;;9.73;6.53;;;;;;;;;;5063731;28;20423;-81
2023/06/05 07:36:48;;;;;;;9.30;5.57;;;;;;;;;;5062232;28;20819;-81
2023/06/05 07:39:16;;;;;;;7.13;5.30;;;;;;;;;;5062472;28;20852;-81
2023/06/05 07:41:42;;;;;;;6.53;5.20;;;;;;;;;;5061848;28;20453;-81
2023/06/05 07:44:09;;;;;;;8.43;5.60;;;;;;;;;;5062727;28;20459;-80
2023/06/05 07:46:36;;;;;;;7.87;5.70;;;;;;;;;;5063065;28;20472;-80
2023/06/05 07:49:04;;;;;;;6.77;6.07;;;;;;;;;;5060139;28;20463;-81
2023/06/05 07:51:35;;;;;;;10.27;5.77;;;;;;;;;;5067213;28;20855;-81
2023/06/05 07:54:02;;;;;;;10.10;5.77;;;;;;;;;;5068589;28;20451;-80
2023/06/05 07:56:31;;;;;;;8.13;5.20;;;;;;;;;;5069645;28;20476;-81
2023/06/05 07:58:57;;;;;;;7.53;4.67;;;;;;;;;;5063092;28;20882;-81
2023/06/05 08:01:25;;;;;;;12.47;6.10;;;;;;;;;;5063663;28;20475;-80
2023/06/05 08:03:52;;;;;;;6.50;5.23;;;;;;;;;;5053582;28;20479;-79
2023/06/05 08:06:18;;;;;;;10.23;5.60;;;;;;;;;;5051227;28;20977;-80
2023/06/05 08:08:46;;;;;;;8.80;6.20;;;;;;;;;;5050927;28;20468;-81
2023/06/05 08:11:12;;;;;;;9.83;5.73;;;;;;;;;;5058652;28;20466;-80
2023/06/05 08:13:40;;;;;;;8.37;6.00;;;;;;;;;;5060760;28;20831;-81
2023/06/05 08:16:07;;;;;;;9.70;6.00;;;;;;;;;;5061200;28;20470;-81
2023/06/05 08:18:33;;;;;;;7.07;5.50;;;;;;;;;;5059411;28;20475;-81
2023/06/05 08:21:00;;;;;;;5.57;5.07;;;;;;;;;;5061511;28;21014;-80
2023/06/05 08:23:27;;;;;;;7.53;5.60;;;;;;;;;;5064355;28;20456;-80
2023/06/05 08:25:55;;;;;;;9.23;5.20;;;;;;;;;;5050422;28;20551;-81
2023/06/05 08:28:21;;;;;;;6.20;5.17;;;;;;;;;;5059084;28;20486;-80
2023/06/05 08:30:51;;;;;;;10.77;5.67;;;;;;;;;;5067411;28;20975;-80
2023/06/05 08:33:18;;;;;;;12.33;5.67;;;;;;;;;;5057474;28;20459;-81
2023/06/05 08:35:44;;;;;;;7.70;5.93;;;;;;;;;;5067303;28;20450;-80
2023/06/05 08:38:10;;;;;;;9.90;5.00;;;;;;;;;;5080161;28;20481;-81
2023/06/05 08:40:38;;;;;;;8.33;5.00;;;;;;;;;;5085765;28;20486;-80
2023/06/05 08:43:05;;;;;;;10.00;5.00;;;;;;;;;;5058635;28;20496;-81
2023/06/05 08:45:31;;;;;;;10.03;5.17;;;;;;;;;;5073408;28;20451;-81
2023/06/05 08:48:00;;;;;;;8.47;4.70;;;;;;;;;;5060826;28;20827;-81
2023/06/05 08:50:28;;;;;;;12.73;4.10;;;;;;;;;;5056970;28;20481;-81
2023/06/05 08:52:57;;;;;;;6.07;5.20;;;;;;;;;;5073055;28;20475;-80
2023/06/05 08:55:23;;;;;;;6.53;5.40;;;;;;;;;;5077791;28;20448;-80
2023/06/05 08:57:50;;;;;;;10.63;5.10;;;;;;;;;;5082662;28;20493;-80
2023/06/05 09:00:17;;;;;;;6.93;4.43;;;;;;;;;;5081585;28;21038;-80
2023/06/05 09:02:46;;;;;;;9.47;5.13;;;;;;;;;;5072635;28;20470;-81
2023/06/05 09:05:14;;;;;;;9.30;5.37;;;;;;;;;;5052450;28;20950;-80
2023/06/05 09:07:43;;;;;;;8.97;4.50;;;;;;;;;;5079950;28;20466;-80
2023/06/05 09:10:23;;;;;;;5.20;3.77;;;;;;;;;;5078603;28;20796;-81
2023/06/05 09:12:54;;;;;;;10.73;4.40;;;;;;;;;;5080887;28;20469;-81
2023/06/05 09:15:25;;;;;;;12.70;4.57;;;;;;;;;;5077783;28;20453;-81
2023/06/05 09:18:05;;;;;;;7.93;4.87;;;;;;;;;;5087900;28;20477;-81
2023/06/05 09:20:34;;;;;;;5.47;4.80;;;;;;;;;;5076161;28;20543;-81
2023/06/05 09:23:01;;;;;;;8.40;4.20;;;;;;;;;;5055857;28;20447;-81
2023/06/05 09:25:28;;;;;;;13.47;4.53;;;;;;;;;;5062393;28;20462;-81
2023/06/05 09:28:06;;;;;;;5.70;3.80;;;;;;;;;;5060874;28;20502;-80
2023/06/05 09:30:33;;;;;;;9.90;4.63;;;;;;;;;;5064396;28;20462;-81
2023/06/05 09:33:08;;;;;;;7.13;4.10;;;;;;;;;;5060666;28;20478;-80
2023/06/05 09:35:38;;;;;;;9.37;4.27;;;;;;;;;;5063173;28;20446;-81
2023/06/05 09:38:05;;;;;;;8.27;3.60;;;;;;;;;;5057210;28;20831;-81
2023/06/05 09:40:38;;;;;;;9.33;4.77;;;;;;;;;;5067894;28;20480;-81
2023/06/05 09:43:14;;;;;;;9.93;4.93;;;;;;;;;;5062513;28;20451;-81
2023/06/05 09:45:43;;;;;;;6.00;4.47;;;;;;;;;;5061242;28;20467;-80
2023/06/05 09:48:14;;;;;;;4.80;3.80;;;;;;;;;;5066900;28;20464;-81
2023/06/05 09:50:42;;;;;;;9.23;4.03;;;;;;;;;;5073243;28;20514;-81
2023/06/05 09:53:09;;;;;;;8.13;4.20;;;;;;;;;;5068543;28;20505;-80
2023/06/05 09:55:37;;;;;;;5.43;3.70;;;;;;;;;;5049738;28;20451;-81
2023/06/05 09:58:10;;;;;;;6.60;4.37;;;;;;;;;;5046861;28;20509;-81
2023/06/05 10:00:38;;;;;;;5.77;3.63;;;;;;;;;;5058051;28;20522;-80
2023/06/05 10:03:06;;;;;;;7.83;4.30;;;;;;;;;;5042172;28;20452;-82
2023/06/05 10:05:33;;;;;;;14.90;4.50;;;;;;;;;;5068368;28;20482;-83
2023/06/05 10:08:01;;;;;;;6.07;5.07;;;;;;;;;;5044824;28;20511;-81
2023/06/05 10:10:28;;;;;;;6.40;4.70;;;;;;;;;;5066666;28;20455;-81
2023/06/05 10:12:56;;;;;;;5.90;4.30;;;;;;;;;;5051184;28;20820;-81
2023/06/05 10:15:22;;;;;;;6.43;4.43;;;;;;;;;;5061989;28;20450;-81
2023/06/05 10:17:49;;;;;;;5.57;4.13;;;;;;;;;;5062454;28;20474;-81
2023/06/05 10:20:16;;;;;;;7.10;4.40;;;;;;;;;;5065689;28;20479;-81
2023/06/05 10:22:45;;;;;;;10.10;5.20;;;;;;;;;;5032730;28;20463;-81
2023/06/05 10:25:15;;;;;;;11.80;5.70;;;;;;;;;;5061880;28;20442;-80
2023/06/05 10:27:51;;;;;;;11.27;5.80;;;;;;;;;;5054670;28;20839;-80
2023/06/05 10:30:35;;;;;;;10.00;6.23;;;;;;;;;;5059244;28;20440;-81
2023/06/05 10:33:09;;;;;;;6.70;4.73;;;;;;;;;;5054782;28;20945;-81
2023/06/05 10:35:42;;;;;;;7.43;4.30;;;;;;;;;;5090394;28;20449;-80
2023/06/05 10:38:16;;;;;;;7.10;4.93;;;;;;;;;;5085018;28;20466;-81
2023/06/05 10:40:46;;;;;;;6.47;5.57;;;;;;;;;;5083513;28;20499;-81
2023/06/05 10:43:28;;;;;;;9.47;7.10;;;;;;;;;;5076637;28;20467;-80
2023/06/05 10:45:55;;;;;;;5.70;4.40;;;;;;;;;;5079645;28;20463;-81
2023/06/05 10:48:22;;;;;;;8.13;4.00;;;;;;;;;;5068694;28;20467;-81
2023/06/05 10:50:48;;;;;;;13.70;4.17;;;;;;;;;;5081429;28;20500;-81
2023/06/05 10:53:33;;;;;;;5.97;4.10;;;;;;;;;;5090993;28;20457;-81
2023/06/05 10:56:01;;;;;;;6.07;4.00;;;;;;;;;;5079702;28;20481;-81
2023/06/05 10:58:28;;;;;;;4.10;3.70;;;;;;;;;;5076658;28;20474;-81
2023/06/05 11:01:16;;;;;;;6.87;4.23;;;;;;;;;;5086295;28;20836;-81
2023/06/05 11:03:56;;;;;;;6.20;4.37;;;;;;;;;;5082741;28;20459;-81
2023/06/05 11:06:22;;;;;;;6.03;4.50;;;;;;;;;;5077839;28;20523;-81
2023/06/05 11:09:04;;;;;;;6.70;4.73;;;;;;;;;;5088241;28;20509;-80
2023/06/05 11:11:51;;;;;;;5.53;3.90;;;;;;;;;;5085934;28;20472;-80
2023/06/05 11:14:18;;;;;;;6.03;3.90;;;;;;;;;;5080400;28;20462;-82
2023/06/05 11:16:44;;;;;;;6.07;4.30;;;;;;;;;;5087872;28;20470;-81
2023/06/05 11:19:25;;;;;;;5.27;4.70;;;;;;;;;;5081389;28;20459;-80
2023/06/05 11:22:04;;;;;;;7.73;5.97;;;;;;;;;;5080492;28;20470;-80
2023/06/05 11:24:31;;;;;;;18.07;7.63;;;;;;;;;;5073338;28;20445;-80
2023/06/05 11:26:59;;;;;;;8.90;6.67;;;;;;;;;;5083847;28;20512;-79
2023/06/05 11:29:26;;;;;;;11.00;7.10;;;;;;;;;;5089209;28;20482;-80
2023/06/05 11:31:53;;;;;;;9.00;7.90;;;;;;;;;;5080290;28;20497;-79
2023/06/05 11:34:19;;;;;;;8.10;6.27;;;;;;;;;;5078563;28;20455;-80
2023/06/05 11:36:46;;;;;;;6.80;6.20;;;;;;;;;;5081632;28;20482;-80
2023/06/05 11:39:12;;;;;;;13.57;6.23;;;;;;;;;;5089890;28;20807;-80
2023/06/05 11:41:43;;;;;;;9.40;7.33;;;;;;;;;;5087004;28;20474;-79
2023/06/05 11:44:11;;;;;;;11.23;6.67;;;;;;;;;;5084401;28;20442;-79
2023/06/05 11:46:38;;;;;;;12.07;8.53;;;;;;;;;;5085011;28;20459;-80
2023/06/05 11:49:05;;;;;;;9.50;6.80;;;;;;;;;;5091724;28;20466;-78
2023/06/05 11:51:33;;;;;;;9.40;6.80;;;;;;;;;;5095402;28;20473;-79
2023/06/05 11:54:01;;;;;;;7.93;5.80;;;;;;;;;;5082039;28;20442;-81
2023/06/05 11:56:27;;;;;;;9.90;6.60;;;;;;;;;;5085977;28;20482;-82
2023/06/05 11:58:55;;;;;;;8.93;5.90;;;;;;;;;;5081808;28;20549;-81
2023/06/05 12:01:23;;;;;;;11.80;6.10;;;;;;;;;;5077631;28;20474;-80
2023/06/05 12:04:02;;;;;;;7.73;5.43;;;;;;;;;;5085977;28;20496;-80
2023/06/05 12:06:30;;;;;;;6.23;5.53;;;;;;;;;;5079277;28;20516;-80
2023/06/05 12:09:07;;;;;;;9.00;6.30;;;;;;;;;;5078785;28;20474;-81
2023/06/05 12:11:34;;;;;;;11.93;5.43;;;;;;;;;;5081703;28;20497;-81
2023/06/05 12:14:01;;;;;;;6.63;5.90;;;;;;;;;;5086578;28;20443;-81
2023/06/05 12:16:32;;;;;;;7.47;5.10;;;;;;;;;;5066083;28;20464;-81
2023/06/05 12:18:59;;;;;;;9.60;5.30;;;;;;;;;;5077070;28;20455;-81
2023/06/05 12:21:26;;;;;;;7.83;5.50;;;;;;;;;;5076476;28;20471;-80
2023/06/05 12:23:53;;;;;;;8.07;5.20;;;;;;;;;;5082050;28;20979;-81
2023/06/05 12:26:19;;;;;;;7.63;4.43;;;;;;;;;;5078396;28;20474;-81
2023/06/05 12:28:46;;;;;;;7.67;5.37;;;;;;;;;;5083283;28;20463;-80
2023/06/05 12:31:27;;;;;;;7.47;5.63;;;;;;;;;;5085662;28;20470;-80
2023/06/05 12:33:55;;;;;;;10.27;6.10;;;;;;;;;;5082587;28;20445;-80
2023/06/05 12:36:21;;;;;;;7.53;5.63;;;;;;;;;;5086464;28;20482;-81
2023/06/05 12:38:49;;;;;;;11.93;6.77;;;;;;;;;;5079814;28;20561;-80
2023/06/05 12:41:16;;;;;;;7.20;5.67;;;;;;;;;;5081815;28;20486;-79
2023/06/05 12:43:42;;;;;;;9.10;5.47;;;;;;;;;;5073258;28;20992;-81
2023/06/05 12:46:08;;;;;;;7.17;5.20;;;;;;;;;;5085549;28;21016;-80
2023/06/05 12:48:38;;;;;;;8.50;5.97;;;;;;;;;;5080756;28;20471;-80
2023/06/05 12:51:08;;;;;;;7.27;5.73;;;;;;;;;;5081290;28;20477;-79
2023/06/05 12:53:37;;;;;;;8.00;5.90;;;;;;;;;;5074456;28;20493;-80
2023/06/05 12:56:04;;;;;;;6.40;5.27;;;;;;;;;;5076409;28;20463;-80
2023/06/05 12:58:38;;;;;;;6.80;4.60;;;;;;;;;;5079618;28;20555;-79
2023/06/05 13:01:04;;;;;;;6.23;4.70;;;;;;;;;;5090461;28;20836;-80
2023/06/05 13:03:31;;;;;;;5.90;4.83;;;;;;;;;;5069611;28;20443;-80
2023/06/05 13:05:57;;;;;;;5.53;4.70;;;;;;;;;;5081002;28;20469;-80
2023/06/05 13:08:25;;;;;;;12.03;5.50;;;;;;;;;;5081929;28;20543;-80
2023/06/05 13:10:51;;;;;;;5.60;5.10;;;;;;;;;;5080012;28;20470;-81
2023/06/05 13:13:19;;;;;;;6.10;4.93;;;;;;;;;;5082316;28;20472;-81
2023/06/05 13:15:47;;;;;;;9.30;5.10;;;;;;;;;;5081827;28;20844;-79
2023/06/05 13:18:13;;;;;;;7.27;5.10;;;;;;;;;;5086727;28;20515;-80
2023/06/05 13:20:40;;;;;;;8.33;5.20;;;;;;;;;;5076448;28;20481;-80
2023/06/05 13:23:07;;;;;;;5.40;4.90;;;;;;;;;;5068726;28;20444;-79
2023/06/05 13:25:35;;;;;;;4.60;4.10;;;;;;;;;;5080362;28;20450;-80
2023/06/05 13:28:02;;;;;;;8.60;5.53;;;;;;;;;;5078327;28;20525;-80
2023/06/05 13:30:28;;;;;;;5.67;4.40;;;;;;;;;;5084232;28;20450;-81
2023/06/05 13:32:55;;;;;;;5.00;3.73;;;;;;;;;;5087099;28;20445;-81
2023/06/05 13:35:21;;;;;;;5.63;4.27;;;;;;;;;;5079651;28;20526;-80
2023/06/05 13:37:49;;;;;;;12.27;4.77;;;;;;;;;;5070091;28;20475;-81
2023/06/05 13:40:16;;;;;;;6.60;4.53;;;;;;;;;;5083420;28;20908;-80
2023/06/05 13:42:43;;;;;;;8.20;5.13;;;;;;;;;;5086657;28;20467;-79
2023/06/05 13:45:10;;;;;;;9.07;5.50;;;;;;;;;;5080087;28;20464;-81
2023/06/05 13:47:37;;;;;;;5.87;4.77;;;;;;;;;;5078149;28;20471;-80
2023/06/05 13:50:04;;;;;;;4.97;4.47;;;;;;;;;;5081177;28;20446;-80
2023/06/05 13:52:31;;;;;;;8.13;5.50;;;;;;;;;;5083111;28;20478;-81
2023/06/05 13:54:58;;;;;;;7.80;4.90;;;;;;;;;;5079864;28;20435;-80
2023/06/05 13:57:25;;;;;;;6.10;4.40;;;;;;;;;;5078938;28;20470;-80
2023/06/05 13:59:55;;;;;;;4.83;4.40;;;;;;;;;;5086096;28;20443;-80
2023/06/05 14:02:21;;;;;;;6.57;4.30;;;;;;;;;;5087314;28;20560;-80
2023/06/05 14:04:48;;;;;;;7.17;3.97;;;;;;;;;;5082303;28;20455;-81
2023/06/05 14:07:14;;;;;;;5.20;4.67;;;;;;;;;;5077528;28;20501;-81
2023/06/05 14:09:41;;;;;;;7.53;5.03;;;;;;;;;;5075000;28;20980;-80
2023/06/05 14:12:09;;;;;;;4.83;4.30;;;;;;;;;;5069855;28;20468;-81
2023/06/05 14:14:36;;;;;;;5.00;4.10;;;;;;;;;;5086446;28;20486;-80
2023/06/05 14:17:03;;;;;;;6.57;3.47;;;;;;;;;;5081879;28;20465;-81
2023/06/05 14:19:30;;;;;;;5.47;4.03;;;;;;;;;;5082102;28;20454;-81
2023/06/05 14:21:57;;;;;;;5.70;4.20;;;;;;;;;;5086312;28;20549;-80
2023/06/05 14:24:24;;;;;;;9.30;4.50;;;;;;;;;;5080660;28;20447;-79
2023/06/05 14:26:50;;;;;;;6.53;4.00;;;;;;;;;;5088546;28;20480;-81
2023/06/05 14:29:17;;;;;;;7.63;4.63;;;;;;;;;;5084675;28;20848;-81
2023/06/05 14:31:43;;;;;;;8.53;5.00;;;;;;;;;;5080337;28;20475;-80
2023/06/05 14:34:11;;;;;;;6.10;4.50;;;;;;;;;;5087858;28;20449;-80
2023/06/05 14:36:37;;;;;;;10.90;5.50;;;;;;;;;;5083672;28;20470;-81
2023/06/05 14:39:04;;;;;;;9.30;4.53;;;;;;;;;;5087872;28;20978;-80
2023/06/05 14:41:30;;;;;;;6.33;4.17;;;;;;;;;;5076600;28;20478;-80
2023/06/05 14:43:57;;;;;;;8.70;4.50;;;;;;;;;;5077860;28;20508;-81